Time;durP1;ratioP1;P1;durP2;ratioP2;P2;SDS_P1;SDS_P2;PMS_P1;PMS_P2;Temp;Humidity;BMP_temperature;BMP_pressure;BME280_temperature;BME280_humidity;BME280_pressure;Samples;Min_cycle;Max_cycle;Signal;HPM_P1;HPM_P2
2021/04/16 00:02:30;;;;;;;2.13;0.90;;;;;;;;;;5039501;28;20045;-54
2021/04/16 00:04:56;;;;;;;3.00;1.20;;;;;;;;;;5019958;28;20095;-58
2021/04/16 00:07:23;;;;;;;2.30;0.90;;;;;;;;;;5023774;28;20041;-50
2021/04/16 00:09:51;;;;;;;1.10;0.90;;;;;;;;;;5018084;28;20132;-56
2021/04/16 00:12:17;;;;;;;3.75;1.20;;;;;;;;;;5013315;28;20042;-53
2021/04/16 00:14:43;;;;;;;2.00;0.90;;;;;;;;;;5020483;28;20046;-53
2021/04/16 00:17:09;;;;;;;2.50;1.20;;;;;;;;;;5022268;28;20052;-53
2021/04/16 00:19:37;;;;;;;2.67;1.20;;;;;;;;;;5019713;28;20050;-55
2021/04/16 00:22:04;;;;;;;2.58;1.20;;;;;;;;;;5004750;28;20034;-59
2021/04/16 00:24:31;;;;;;;4.50;1.20;;;;;;;;;;5026092;28;20512;-56
2021/04/16 00:26:57;;;;;;;2.33;1.10;;;;;;;;;;5012017;28;20049;-55
2021/04/16 00:29:24;;;;;;;3.35;1.40;;;;;;;;;;5019875;28;20046;-54
2021/04/16 00:31:55;;;;;;;4.88;1.17;;;;;;;;;;5022863;28;20057;-55
2021/04/16 00:34:22;;;;;;;4.65;1.40;;;;;;;;;;5023346;28;20033;-52
2021/04/16 00:36:48;;;;;;;2.35;1.00;;;;;;;;;;5021673;28;20050;-52
2021/04/16 00:39:15;;;;;;;2.72;1.17;;;;;;;;;;5023566;28;20041;-58
2021/04/16 00:41:42;;;;;;;3.35;1.35;;;;;;;;;;5040920;28;20071;-54
2021/04/16 00:44:08;;;;;;;3.42;1.30;;;;;;;;;;5037435;28;20037;-58
2021/04/16 00:46:37;;;;;;;4.18;1.52;;;;;;;;;;5020693;28;20102;-58
2021/04/16 00:49:05;;;;;;;3.00;1.30;;;;;;;;;;5021546;28;20495;-52
2021/04/16 00:51:33;;;;;;;4.50;1.38;;;;;;;;;;5038421;28;20037;-55
2021/04/16 00:53:59;;;;;;;2.80;1.20;;;;;;;;;;5031477;28;20052;-54
2021/04/16 00:56:25;;;;;;;2.40;0.95;;;;;;;;;;5019769;28;20049;-56
2021/04/16 00:58:52;;;;;;;2.97;1.42;;;;;;;;;;5020116;28;20042;-50
2021/04/16 01:01:18;;;;;;;3.05;1.20;;;;;;;;;;5018097;28;20042;-51
2021/04/16 01:03:44;;;;;;;3.38;1.50;;;;;;;;;;5022230;28;20046;-54
2021/04/16 01:06:11;;;;;;;4.32;1.30;;;;;;;;;;5027166;28;20041;-52
2021/04/16 01:08:37;;;;;;;3.75;1.42;;;;;;;;;;5038946;28;20045;-51
2021/04/16 01:11:04;;;;;;;2.97;1.30;;;;;;;;;;5029143;28;20037;-51
2021/04/16 01:13:34;;;;;;;5.10;1.20;;;;;;;;;;5020200;28;20044;-51
2021/04/16 01:16:03;;;;;;;3.75;1.52;;;;;;;;;;5022849;28;20096;-50
2021/04/16 01:18:28;;;;;;;;;;;;;;;;;;5042513;28;20041;-50
2021/04/16 01:21:04;;;;;;;2.88;1.08;;;;;;;;;;5038376;28;19945;-52
2021/04/16 01:23:35;;;;;;;2.72;1.30;;;;;;;;;;5042463;28;20048;-52
2021/04/16 01:26:03;;;;;;;3.90;1.30;;;;;;;;;;5037915;28;20049;-55
2021/04/16 01:28:29;;;;;;;4.05;1.30;;;;;;;;;;5040352;28;20049;-51
2021/04/16 01:30:57;;;;;;;2.97;1.20;;;;;;;;;;5036979;28;20056;-53
2021/04/16 01:33:23;;;;;;;4.68;1.35;;;;;;;;;;5025638;28;20057;-49
2021/04/16 01:35:50;;;;;;;5.43;1.27;;;;;;;;;;5036581;28;20029;-54
2021/04/16 01:38:16;;;;;;;2.53;1.38;;;;;;;;;;5002695;28;20045;-51
2021/04/16 01:40:43;;;;;;;5.70;1.55;;;;;;;;;;5020823;28;20193;-53
2021/04/16 01:43:22;;;;;;;3.65;1.35;;;;;;;;;;5017544;28;20052;-48
2021/04/16 01:45:48;;;;;;;3.13;1.30;;;;;;;;;;5019130;28;20060;-50
2021/04/16 01:48:15;;;;;;;2.05;1.23;;;;;;;;;;5016979;28;20061;-50
2021/04/16 01:50:44;;;;;;;3.75;1.45;;;;;;;;;;5020598;28;20056;-51
2021/04/16 01:53:09;;;;;;;;;;;;;;;;;;5021367;28;20029;-54
2021/04/16 01:55:35;;;;;;;3.15;1.10;;;;;;;;;;5038894;28;19932;-49
2021/04/16 01:58:01;;;;;;;2.80;1.40;;;;;;;;;;5027042;28;20057;-51
2021/04/16 02:00:30;;;;;;;4.07;1.27;;;;;;;;;;5021890;28;20042;-51
2021/04/16 02:02:56;;;;;;;3.80;1.20;;;;;;;;;;5032108;28;20065;-51
2021/04/16 02:05:22;;;;;;;4.20;1.23;;;;;;;;;;5021958;28;20034;-48
2021/04/16 02:07:48;;;;;;;3.50;1.15;;;;;;;;;;5007942;28;20366;-49
2021/04/16 02:10:14;;;;;;;2.00;0.90;;;;;;;;;;5044150;28;20057;-47
2021/04/16 02:12:40;;;;;;;3.88;1.23;;;;;;;;;;5037104;28;20045;-53
2021/04/16 02:15:09;;;;;;;3.00;1.33;;;;;;;;;;5023521;28;20033;-52
2021/04/16 02:17:36;;;;;;;;;;;;;;;;;;5023155;28;20055;-52
2021/04/16 02:20:06;;;;;;;3.53;1.55;;;;;;;;;;5021242;28;19925;-50
2021/04/16 02:22:32;;;;;;;3.67;1.38;;;;;;;;;;5024634;28;20037;-49
2021/04/16 02:24:58;;;;;;;2.92;1.25;;;;;;;;;;5018286;28;20042;-53
2021/04/16 02:27:25;;;;;;;2.33;1.27;;;;;;;;;;5022980;28;20059;-47
2021/04/16 02:29:52;;;;;;;5.05;1.88;;;;;;;;;;5034641;28;20045;-49
2021/04/16 02:32:18;;;;;;;4.50;1.58;;;;;;;;;;5041618;28;20042;-49
2021/04/16 02:34:45;;;;;;;4.38;1.52;;;;;;;;;;5040135;28;20131;-46
2021/04/16 02:37:14;;;;;;;7.93;1.88;;;;;;;;;;5042262;28;20049;-48
2021/04/16 02:39:41;;;;;;;5.32;1.80;;;;;;;;;;5039237;28;20029;-51
2021/04/16 02:42:07;;;;;;;4.28;1.73;;;;;;;;;;5042724;28;20041;-53
2021/04/16 02:44:33;;;;;;;4.20;1.83;;;;;;;;;;5032544;28;20037;-50
2021/04/16 02:46:59;;;;;;;3.20;1.23;;;;;;;;;;5025764;28;20040;-47
2021/04/16 02:49:25;;;;;;;5.00;1.60;;;;;;;;;;5022240;28;20037;-49
2021/04/16 02:51:51;;;;;;;4.38;1.48;;;;;;;;;;5040082;28;20103;-50
2021/04/16 02:54:18;;;;;;;3.25;1.63;;;;;;;;;;5029829;28;20057;-52
2021/04/16 02:56:45;;;;;;;4.00;1.25;;;;;;;;;;5042111;28;20119;-48
2021/04/16 02:59:11;;;;;;;5.50;1.20;;;;;;;;;;5042264;28;20041;-50
2021/04/16 03:01:37;;;;;;;5.22;1.90;;;;;;;;;;5021184;28;20053;-52
2021/04/16 03:04:04;;;;;;;7.95;1.50;;;;;;;;;;5020957;28;20058;-51
2021/04/16 03:06:30;;;;;;;4.20;1.50;;;;;;;;;;5019599;28;20073;-52
2021/04/16 03:08:58;;;;;;;4.63;1.80;;;;;;;;;;5022260;28;20056;-51
2021/04/16 03:11:26;;;;;;;4.40;1.48;;;;;;;;;;5032894;28;20029;-51
2021/04/16 03:13:52;;;;;;;6.35;1.85;;;;;;;;;;5022051;28;20041;-49
2021/04/16 03:16:18;;;;;;;3.90;1.33;;;;;;;;;;5018756;28;20042;-52
2021/04/16 03:18:45;;;;;;;2.63;1.20;;;;;;;;;;5023843;28;20041;-51
2021/04/16 03:21:11;;;;;;;3.65;1.63;;;;;;;;;;5020300;28;20053;-48
2021/04/16 03:23:37;;;;;;;2.60;1.35;;;;;;;;;;5021760;28;20038;-51
2021/04/16 03:26:03;;;;;;;3.58;1.52;;;;;;;;;;5024641;28;20041;-50
2021/04/16 03:28:30;;;;;;;4.57;1.90;;;;;;;;;;5042868;28;20115;-49
2021/04/16 03:30:57;;;;;;;3.40;1.60;;;;;;;;;;5035565;28;20061;-48
2021/04/16 03:33:23;;;;;;;4.43;1.75;;;;;;;;;;5025686;28;20041;-47
2021/04/16 03:35:49;;;;;;;5.30;1.80;;;;;;;;;;5018453;28;20131;-49
2021/04/16 03:38:15;;;;;;;3.42;1.35;;;;;;;;;;5043244;28;20045;-50
2021/04/16 03:40:43;;;;;;;5.22;1.58;;;;;;;;;;5044715;28;20033;-47
2021/04/16 03:43:08;;;;;;;3.30;1.60;;;;;;;;;;5021051;28;20037;-48
2021/04/16 03:45:36;;;;;;;5.00;1.55;;;;;;;;;;5023585;28;20052;-51
2021/04/16 03:48:02;;;;;;;3.83;1.55;;;;;;;;;;5017958;28;20049;-49
2021/04/16 03:50:31;;;;;;;3.35;1.42;;;;;;;;;;5022059;28;20100;-47
2021/04/16 03:52:57;;;;;;;3.67;1.42;;;;;;;;;;5030505;28;20074;-48
2021/04/16 03:55:25;;;;;;;3.28;1.40;;;;;;;;;;5042425;28;20058;-48
2021/04/16 03:57:52;;;;;;;3.42;1.90;;;;;;;;;;5025382;28;20117;-48
2021/04/16 04:00:20;;;;;;;4.68;1.52;;;;;;;;;;5021606;28;20037;-51
2021/04/16 04:02:46;;;;;;;;;;;;;;;;;;5018526;28;20045;-51
2021/04/16 04:05:14;;;;;;;4.88;1.40;;;;;;;;;;5020597;28;19994;-49
2021/04/16 04:07:40;;;;;;;3.88;1.40;;;;;;;;;;5018553;28;20034;-50
2021/04/16 04:10:09;;;;;;;5.03;1.73;;;;;;;;;;5022415;28;20049;-49
2021/04/16 04:12:35;;;;;;;5.07;1.70;;;;;;;;;;5022464;28;20087;-54
2021/04/16 04:15:01;;;;;;;4.40;1.63;;;;;;;;;;5022617;28;20448;-47
2021/04/16 04:17:28;;;;;;;8.10;1.60;;;;;;;;;;5019779;28;20067;-51
2021/04/16 04:19:57;;;;;;;2.78;1.40;;;;;;;;;;5040201;28;20045;-55
2021/04/16 04:22:24;;;;;;;3.25;1.33;;;;;;;;;;5041518;28;20098;-50
2021/04/16 04:24:50;;;;;;;4.80;1.63;;;;;;;;;;5037367;28;20045;-52
2021/04/16 04:27:17;;;;;;;5.43;1.50;;;;;;;;;;5042258;28;20042;-47
2021/04/16 04:29:45;;;;;;;5.10;1.60;;;;;;;;;;5021155;28;20081;-49
2021/04/16 04:32:13;;;;;;;4.45;1.83;;;;;;;;;;5020869;28;20034;-51
2021/04/16 04:34:40;;;;;;;4.22;1.65;;;;;;;;;;5019380;28;20054;-55
2021/04/16 04:37:06;;;;;;;5.80;1.70;;;;;;;;;;5021148;28;20041;-49
2021/04/16 04:39:36;;;;;;;3.35;1.50;;;;;;;;;;5017651;28;20048;-51
2021/04/16 04:42:03;;;;;;;3.28;1.58;;;;;;;;;;5022199;28;20045;-50
2021/04/16 04:44:29;;;;;;;4.32;1.80;;;;;;;;;;5026468;28;20041;-50
2021/04/16 04:46:55;;;;;;;5.68;1.80;;;;;;;;;;5041688;28;20062;-50
2021/04/16 04:49:21;;;;;;;5.57;1.77;;;;;;;;;;5039025;28;20045;-49
2021/04/16 04:51:51;;;;;;;3.38;1.50;;;;;;;;;;5039404;28;20049;-49
2021/04/16 04:54:18;;;;;;;5.00;1.77;;;;;;;;;;5026017;28;20042;-54
2021/04/16 04:56:45;;;;;;;11.15;2.03;;;;;;;;;;5020708;28;20046;-48
2021/04/16 04:59:11;;;;;;;5.80;2.00;;;;;;;;;;5018490;28;20038;-49
2021/04/16 05:01:37;;;;;;;4.32;1.42;;;;;;;;;;5021923;28;20105;-52
2021/04/16 05:04:05;;;;;;;4.88;1.73;;;;;;;;;;5020504;28;20048;-50
2021/04/16 05:06:31;;;;;;;5.80;1.73;;;;;;;;;;5019266;28;20042;-51
2021/04/16 05:08:57;;;;;;;15.90;4.35;;;;;;;;;;5020895;28;20029;-47
2021/04/16 05:11:23;;;;;;;8.85;3.25;;;;;;;;;;5027763;28;20047;-52
2021/04/16 05:13:53;;;;;;;3.22;1.45;;;;;;;;;;5035785;28;20060;-49
2021/04/16 05:16:19;;;;;;;5.45;1.83;;;;;;;;;;5029182;28;20037;-50
2021/04/16 05:18:48;;;;;;;3.53;1.48;;;;;;;;;;5031540;28;20037;-49
2021/04/16 05:21:14;;;;;;;6.65;2.10;;;;;;;;;;5030085;28;20130;-50
2021/04/16 05:23:40;;;;;;;7.00;2.03;;;;;;;;;;5028756;28;20140;-51
2021/04/16 05:26:06;;;;;;;5.30;2.00;;;;;;;;;;5027569;28;20105;-50
2021/04/16 05:28:32;;;;;;;9.52;2.22;;;;;;;;;;5028786;28;20111;-50
2021/04/16 05:31:00;;;;;;;5.10;1.90;;;;;;;;;;5026932;28;20025;-51
2021/04/16 05:33:26;;;;;;;5.18;1.80;;;;;;;;;;5029265;28;20057;-52
2021/04/16 05:35:52;;;;;;;8.75;2.25;;;;;;;;;;5024880;28;20115;-52
2021/04/16 05:38:18;;;;;;;11.30;2.25;;;;;;;;;;5030011;28;20046;-53
2021/04/16 05:40:45;;;;;;;7.07;2.38;;;;;;;;;;5023633;28;20048;-55
2021/04/16 05:43:11;;;;;;;4.90;2.03;;;;;;;;;;5029265;28;20078;-55
2021/04/16 05:45:38;;;;;;;3.47;1.60;;;;;;;;;;5027858;28;20042;-49
2021/04/16 05:48:05;;;;;;;13.73;4.15;;;;;;;;;;5025978;28;20061;-55
2021/04/16 05:50:31;;;;;;;9.38;2.45;;;;;;;;;;5029009;28;20056;-52
2021/04/16 05:53:02;;;;;;;4.53;1.90;;;;;;;;;;5025125;28;20134;-50
2021/04/16 05:55:28;;;;;;;8.77;2.33;;;;;;;;;;5029804;28;20061;-56
2021/04/16 05:57:54;;;;;;;8.73;2.33;;;;;;;;;;5025368;28;20037;-52
2021/04/16 06:00:25;;;;;;;8.55;2.30;;;;;;;;;;5028306;28;20038;-51
2021/04/16 06:02:51;;;;;;;11.18;2.85;;;;;;;;;;5022796;28;20045;-51
2021/04/16 06:05:20;;;;;;;8.30;2.40;;;;;;;;;;5025950;28;20414;-53
2021/04/16 06:07:46;;;;;;;6.00;2.25;;;;;;;;;;5024146;28;20033;-47
2021/04/16 06:10:14;;;;;;;12.95;3.70;;;;;;;;;;5024692;28;20049;-55
2021/04/16 06:12:40;;;;;;;9.73;3.08;;;;;;;;;;5027557;28;20089;-50
2021/04/16 06:15:08;;;;;;;8.65;2.42;;;;;;;;;;5020701;28;20041;-51
2021/04/16 06:17:34;;;;;;;4.30;1.92;;;;;;;;;;5020044;28;20038;-54
2021/04/16 06:20:10;;;;;;;7.22;2.38;;;;;;;;;;5038727;28;20056;-48
2021/04/16 06:22:36;;;;;;;8.30;2.17;;;;;;;;;;5034305;28;20061;-52
2021/04/16 06:25:03;;;;;;;8.73;1.92;;;;;;;;;;5019466;28;20049;-55
2021/04/16 06:27:29;;;;;;;9.60;2.20;;;;;;;;;;5016277;28;20042;-54
2021/04/16 06:29:56;;;;;;;7.35;2.20;;;;;;;;;;5019806;28;20088;-52
2021/04/16 06:32:22;;;;;;;8.82;2.05;;;;;;;;;;5020152;28;20038;-51
2021/04/16 06:34:48;;;;;;;6.30;1.95;;;;;;;;;;5019012;28;20053;-50
2021/04/16 06:37:15;;;;;;;7.03;2.60;;;;;;;;;;5018321;28;20046;-51
2021/04/16 06:39:43;;;;;;;6.22;2.38;;;;;;;;;;5032819;28;20041;-51
2021/04/16 06:42:17;;;;;;;6.20;2.47;;;;;;;;;;5036796;28;20057;-50
2021/04/16 06:44:45;;;;;;;7.07;2.05;;;;;;;;;;5035391;28;20033;-51
2021/04/16 06:47:15;;;;;;;6.50;2.27;;;;;;;;;;5040986;28;20040;-52
2021/04/16 06:49:47;;;;;;;7.32;2.45;;;;;;;;;;5026398;28;20057;-48
2021/04/16 06:52:15;;;;;;;12.57;2.42;;;;;;;;;;5025298;28;20042;-48
2021/04/16 06:54:46;;;;;;;6.45;2.20;;;;;;;;;;5025800;28;20052;-52
2021/04/16 06:57:20;;;;;;;8.43;2.30;;;;;;;;;;5026377;28;20041;-51
2021/04/16 06:59:52;;;;;;;5.20;2.20;;;;;;;;;;5030253;28;20037;-54
2021/04/16 07:02:18;;;;;;;5.45;2.28;;;;;;;;;;5042661;28;20045;-53
2021/04/16 07:04:48;;;;;;;6.30;1.95;;;;;;;;;;5039036;28;20048;-54
2021/04/16 07:07:20;;;;;;;5.68;2.13;;;;;;;;;;5059402;28;20045;-51
2021/04/16 07:09:50;;;;;;;5.65;2.38;;;;;;;;;;5033049;28;20034;-53
2021/04/16 07:12:19;;;;;;;7.20;2.22;;;;;;;;;;5021772;28;20029;-53
2021/04/16 07:14:46;;;;;;;3.25;1.80;;;;;;;;;;5019753;28;20040;-55
2021/04/16 07:17:14;;;;;;;9.88;2.50;;;;;;;;;;5022777;28;20372;-58
2021/04/16 07:19:43;;;;;;;8.87;2.47;;;;;;;;;;5022163;28;20492;-57
2021/04/16 07:22:17;;;;;;;11.80;2.50;;;;;;;;;;5043094;28;20037;-57
2021/04/16 07:24:43;;;;;;;5.85;1.80;;;;;;;;;;5038736;28;20562;-56
2021/04/16 07:27:17;;;;;;;8.93;2.10;;;;;;;;;;5022870;28;20071;-54
2021/04/16 07:29:45;;;;;;;6.60;2.00;;;;;;;;;;5020921;28;20038;-55
2021/04/16 07:32:34;;;;;;;6.68;2.10;;;;;;;;;;5038956;28;20045;-55
2021/04/16 07:35:17;;;;;;;11.00;1.98;;;;;;;;;;5026014;28;20068;-54
2021/04/16 07:37:44;;;;;;;7.38;2.40;;;;;;;;;;5018477;28;20131;-55
2021/04/16 07:40:12;;;;;;;4.97;1.88;;;;;;;;;;5019333;28;20045;-55
2021/04/16 07:42:41;;;;;;;6.10;1.65;;;;;;;;;;5019761;28;20125;-54
2021/04/16 07:45:09;;;;;;;6.55;2.30;;;;;;;;;;5021483;28;20030;-54
2021/04/16 07:47:36;;;;;;;4.03;1.90;;;;;;;;;;5036365;28;20045;-55
2021/04/16 07:50:07;;;;;;;6.35;2.08;;;;;;;;;;5042193;28;20598;-54
2021/04/16 07:52:34;;;;;;;10.20;2.17;;;;;;;;;;5035810;28;20049;-54
2021/04/16 07:55:18;;;;;;;8.27;2.35;;;;;;;;;;5022501;28;20053;-57
2021/04/16 07:57:58;;;;;;;6.90;1.90;;;;;;;;;;5018415;28;20057;-57
2021/04/16 08:00:26;;;;;;;5.82;1.92;;;;;;;;;;5019529;28;20041;-56
2021/04/16 08:02:54;;;;;;;;;;;;;;;;;;5033408;28;20147;-56
2021/04/16 08:05:28;;;;;;;5.60;1.92;;;;;;;;;;5041010;28;19933;-55
2021/04/16 08:08:06;;;;;;;6.88;1.90;;;;;;;;;;5037649;28;20618;-51
2021/04/16 08:10:33;;;;;;;;;;;;;;;;;;5040756;28;20060;-56
2021/04/16 08:13:06;;;;;;;9.63;2.10;;;;;;;;;;5036056;28;19975;-57
2021/04/16 08:15:32;;;;;;;9.07;2.67;;;;;;;;;;5041655;28;20033;-54
2021/04/16 08:18:07;;;;;;;6.07;2.10;;;;;;;;;;5029167;28;20081;-53
2021/04/16 08:20:37;;;;;;;10.73;2.75;;;;;;;;;;5023545;28;20041;-54
2021/04/16 08:23:03;;;;;;;8.18;2.20;;;;;;;;;;5019872;28;20054;-56
2021/04/16 08:25:35;;;;;;;4.05;1.90;;;;;;;;;;5021349;28;20034;-56
2021/04/16 08:28:03;;;;;;;7.97;2.00;;;;;;;;;;5017900;28;20147;-57
2021/04/16 08:30:37;;;;;;;7.53;2.53;;;;;;;;;;5021732;28;20121;-58
2021/04/16 08:33:05;;;;;;;6.45;2.00;;;;;;;;;;5019429;28;20521;-56
2021/04/16 08:35:36;;;;;;;7.00;2.13;;;;;;;;;;5041537;28;20049;-56
2021/04/16 08:38:04;;;;;;;8.55;2.13;;;;;;;;;;5036001;28;20037;-57
2021/04/16 08:40:33;;;;;;;12.40;2.20;;;;;;;;;;5041007;28;20048;-55
2021/04/16 08:42:59;;;;;;;8.98;1.90;;;;;;;;;;5034447;28;20064;-52
2021/04/16 08:45:26;;;;;;;10.43;2.42;;;;;;;;;;5019931;28;20037;-56
2021/04/16 08:47:56;;;;;;;4.15;1.77;;;;;;;;;;5017293;28;20026;-58
2021/04/16 08:50:25;;;;;;;5.70;2.10;;;;;;;;;;5020827;28;20057;-55
2021/04/16 08:52:52;;;;;;;4.45;1.50;;;;;;;;;;5020118;28;20042;-52
2021/04/16 08:55:23;;;;;;;4.82;1.98;;;;;;;;;;5016999;28;20085;-56
2021/04/16 08:57:53;;;;;;;3.85;1.40;;;;;;;;;;5020957;28;20049;-54
2021/04/16 09:00:23;;;;;;;6.13;1.48;;;;;;;;;;5034746;28;20037;-56
2021/04/16 09:02:50;;;;;;;2.53;1.30;;;;;;;;;;5039949;28;20033;-59
2021/04/16 09:05:19;;;;;;;2.13;1.17;;;;;;;;;;5036015;28;20041;-52
2021/04/16 09:07:46;;;;;;;1.67;0.90;;;;;;;;;;5039865;28;20037;-58
2021/04/16 09:10:31;;;;;;;6.07;1.10;;;;;;;;;;5036249;28;20049;-55
2021/04/16 09:12:58;;;;;;;6.68;1.40;;;;;;;;;;5033063;28;20045;-56
2021/04/16 09:15:45;;;;;;;3.63;1.05;;;;;;;;;;5024640;28;20061;-58
2021/04/16 09:18:13;;;;;;;1.58;0.88;;;;;;;;;;5016819;28;20041;-58
2021/04/16 09:20:58;;;;;;;1.05;0.52;;;;;;;;;;5018287;28;20052;-59
2021/04/16 09:23:39;;;;;;;2.97;1.05;;;;;;;;;;5020614;28;20038;-58
2021/04/16 09:26:06;;;;;;;4.60;1.23;;;;;;;;;;5016066;28;20051;-59
2021/04/16 09:28:34;;;;;;;2.85;1.20;;;;;;;;;;5020379;28;20042;-56
2021/04/16 09:31:03;;;;;;;3.90;1.20;;;;;;;;;;5018385;28;20056;-60
2021/04/16 09:33:42;;;;;;;2.22;0.98;;;;;;;;;;5020232;28;20030;-59
2021/04/16 09:36:08;;;;;;;;;;;;;;;;;;5019002;28;20030;-56
2021/04/16 09:38:39;;;;;;;5.57;1.65;;;;;;;;;;5020184;28;19983;-54
2021/04/16 09:41:31;;;;;;;7.20;1.30;;;;;;;;;;5017851;28;20042;-55
2021/04/16 09:43:59;;;;;;;4.22;0.73;;;;;;;;;;5007664;28;20049;-52
2021/04/16 09:46:26;;;;;;;1.70;0.90;;;;;;;;;;5018265;28;20156;-53
2021/04/16 09:48:54;;;;;;;5.80;1.60;;;;;;;;;;5020614;28;20053;-55
2021/04/16 09:51:31;;;;;;;2.90;0.82;;;;;;;;;;5018030;28;20049;-53
2021/04/16 09:54:21;;;;;;;3.92;0.98;;;;;;;;;;5026136;28;20427;-58
2021/04/16 09:57:02;;;;;;;6.35;1.25;;;;;;;;;;5024366;28;20045;-58
2021/04/16 09:59:31;;;;;;;5.20;1.52;;;;;;;;;;5038708;28;20037;-57
2021/04/16 10:02:21;;;;;;;6.20;1.02;;;;;;;;;;5015819;28;20030;-57
2021/04/16 10:04:59;;;;;;;1.63;0.80;;;;;;;;;;5020155;28;20119;-57
2021/04/16 10:07:32;;;;;;;4.13;1.05;;;;;;;;;;5026854;28;20062;-58
2021/04/16 10:10:04;;;;;;;6.05;1.45;;;;;;;;;;5038036;28;20057;-57
2021/04/16 10:12:31;;;;;;;1.13;0.68;;;;;;;;;;5023663;28;20030;-55
2021/04/16 10:14:58;;;;;;;2.20;0.82;;;;;;;;;;5018742;28;20075;-57
2021/04/16 10:17:25;;;;;;;5.95;1.20;;;;;;;;;;5022830;28;20148;-58
2021/04/16 10:19:52;;;;;;;3.17;0.75;;;;;;;;;;5038409;28;20037;-53
2021/04/16 10:22:21;;;;;;;1.95;1.00;;;;;;;;;;5037168;28;20033;-58
2021/04/16 12:38:58;;;;;;;3.13;1.10;;;;;;;;;;5019476;28;20053;-57
2021/04/16 12:41:25;;;;;;;2.08;1.05;;;;;;;;;;5037595;28;20052;-51
2021/04/16 12:43:53;;;;;;;2.15;1.10;;;;;;;;;;5033776;28;20040;-57
2021/04/16 12:46:20;;;;;;;1.55;0.85;;;;;;;;;;5021072;28;20041;-52
2021/04/16 12:48:46;;;;;;;1.67;0.80;;;;;;;;;;5030629;28;20073;-50
2021/04/16 12:51:13;;;;;;;5.45;0.93;;;;;;;;;;5040898;28;20029;-51
2021/04/16 12:53:39;;;;;;;5.20;1.13;;;;;;;;;;5037127;28;20081;-54
2021/04/16 12:56:07;;;;;;;3.45;0.88;;;;;;;;;;5040514;28;20090;-54
2021/04/16 12:58:35;;;;;;;2.20;0.90;;;;;;;;;;5029295;28;20038;-52
2021/04/16 13:01:05;;;;;;;3.05;1.20;;;;;;;;;;5020456;28;20041;-56
2021/04/16 13:03:33;;;;;;;1.42;0.70;;;;;;;;;;5023508;28;20049;-54
2021/04/16 13:05:59;;;;;;;1.13;0.82;;;;;;;;;;5038608;28;20151;-57
2021/04/16 13:08:25;;;;;;;2.58;1.00;;;;;;;;;;5034537;28;20070;-55
2021/04/16 13:10:53;;;;;;;2.25;0.75;;;;;;;;;;5013261;28;20037;-54
2021/04/16 13:13:19;;;;;;;2.28;0.88;;;;;;;;;;5017480;28;20042;-57
2021/04/16 13:15:45;;;;;;;3.15;0.88;;;;;;;;;;5040275;28;20048;-52
2021/04/16 13:18:15;;;;;;;0.88;0.70;;;;;;;;;;5040217;28;20052;-57
2021/04/16 13:20:42;;;;;;;6.10;0.80;;;;;;;;;;5034049;28;20049;-55
2021/04/16 13:23:08;;;;;;;3.77;1.00;;;;;;;;;;5040508;28;20048;-60
2021/04/16 13:25:39;;;;;;;;;;;;;;;;;;5036118;28;20066;-54
2021/04/16 13:28:05;;;;;;;2.73;0.77;;;;;;;;;;5039094;28;19925;-53
2021/04/16 13:30:32;;;;;;;1.45;0.88;;;;;;;;;;5037643;28;20041;-56
2021/04/16 13:33:00;;;;;;;1.52;0.60;;;;;;;;;;5039706;28;20156;-55
2021/04/16 13:35:29;;;;;;;2.88;0.80;;;;;;;;;;5020377;28;20033;-54
2021/04/16 13:37:55;;;;;;;2.28;0.88;;;;;;;;;;5038609;28;20044;-52
2021/04/16 13:40:21;;;;;;;3.28;0.70;;;;;;;;;;5026604;28;20046;-57
2021/04/16 13:42:47;;;;;;;3.67;0.75;;;;;;;;;;5018834;28;20045;-56
2021/04/16 13:45:14;;;;;;;3.50;1.00;;;;;;;;;;5017776;28;20038;-58
2021/04/16 13:47:42;;;;;;;5.15;1.10;;;;;;;;;;5019003;28;20057;-54
2021/04/16 13:50:10;;;;;;;2.17;1.00;;;;;;;;;;5020772;28;20029;-53
2021/04/16 13:52:37;;;;;;;3.78;1.00;;;;;;;;;;5040346;28;20056;-56
2021/04/16 13:55:03;;;;;;;1.27;0.90;;;;;;;;;;5019515;28;20042;-55
2021/04/16 13:57:29;;;;;;;1.95;0.85;;;;;;;;;;5021796;28;20064;-56
2021/04/16 13:59:56;;;;;;;3.80;1.25;;;;;;;;;;5020627;28;20038;-54
2021/04/16 14:02:25;;;;;;;3.00;1.20;;;;;;;;;;5036019;28;20048;-56
2021/04/16 14:04:52;;;;;;;2.85;1.17;;;;;;;;;;5042759;28;20077;-56
2021/04/16 14:07:18;;;;;;;3.45;1.15;;;;;;;;;;5024123;28;20046;-58
2021/04/16 14:09:45;;;;;;;2.78;0.90;;;;;;;;;;5020283;28;20037;-51
2021/04/16 14:12:11;;;;;;;2.90;1.13;;;;;;;;;;5017106;28;20042;-55
2021/04/16 14:14:37;;;;;;;1.60;0.90;;;;;;;;;;5021064;28;20041;-55
2021/04/16 14:17:05;;;;;;;3.58;1.05;;;;;;;;;;5017258;28;20077;-50
2021/04/16 14:19:41;;;;;;;4.43;1.15;;;;;;;;;;5020256;28;20038;-54
2021/04/16 14:22:10;;;;;;;4.13;1.30;;;;;;;;;;5016168;28;20026;-55
2021/04/16 14:24:36;;;;;;;2.20;1.23;;;;;;;;;;5019901;28;20053;-57
2021/04/16 14:27:02;;;;;;;4.30;1.58;;;;;;;;;;5014733;28;20085;-50
2021/04/16 14:29:30;;;;;;;3.45;1.05;;;;;;;;;;5021003;28;20110;-52
2021/04/16 14:31:56;;;;;;;2.10;1.20;;;;;;;;;;5021982;28;20111;-49
2021/04/16 14:34:25;;;;;;;3.00;1.42;;;;;;;;;;5039296;28;20119;-57
2021/04/16 14:36:50;;;;;;;3.03;1.17;;;;;;;;;;5034964;28;20033;-53
2021/04/16 14:39:17;;;;;;;3.00;1.35;;;;;;;;;;5037386;28;20119;-56
2021/04/16 14:41:43;;;;;;;2.92;1.17;;;;;;;;;;5035458;28;20160;-52
2021/04/16 14:44:14;;;;;;;4.70;1.52;;;;;;;;;;5019436;28;20042;-57
2021/04/16 14:46:41;;;;;;;3.28;1.38;;;;;;;;;;5019554;28;20054;-56
2021/04/16 14:49:07;;;;;;;2.53;1.23;;;;;;;;;;5016158;28;20330;-57
2021/04/16 14:51:32;;;;;;;2.92;1.20;;;;;;;;;;5018656;28;20053;-55
2021/04/16 14:54:00;;;;;;;1.90;1.02;;;;;;;;;;5038116;28;20090;-57
2021/04/16 14:56:26;;;;;;;3.42;1.10;;;;;;;;;;5019104;28;20045;-57
2021/04/16 14:58:58;;;;;;;3.30;1.15;;;;;;;;;;5032179;28;20053;-57
2021/04/16 15:01:25;;;;;;;4.25;1.30;;;;;;;;;;5019834;28;20121;-59
2021/04/16 15:03:51;;;;;;;4.90;1.00;;;;;;;;;;5016039;28;20056;-55
2021/04/16 15:06:19;;;;;;;4.07;1.02;;;;;;;;;;5013279;28;20061;-56
2021/04/16 15:08:47;;;;;;;2.90;1.05;;;;;;;;;;5018747;28;20037;-58
2021/04/16 15:11:13;;;;;;;;;;;;;;;;;;5022670;28;20033;-59
2021/04/16 15:13:39;;;;;;;2.60;1.10;;;;;;;;;;5017440;28;19913;-57
2021/04/16 15:16:06;;;;;;;8.52;1.15;;;;;;;;;;5021437;28;20102;-55
2021/04/16 15:18:34;;;;;;;2.42;1.10;;;;;;;;;;5019641;28;20128;-58
2021/04/16 15:21:03;;;;;;;3.23;1.10;;;;;;;;;;5022967;28;20037;-57
2021/04/16 15:23:29;;;;;;;4.35;1.15;;;;;;;;;;5018745;28;20049;-56
2021/04/16 15:25:56;;;;;;;2.65;1.00;;;;;;;;;;5021412;28;20053;-58
2021/04/16 15:28:23;;;;;;;2.00;1.00;;;;;;;;;;5013292;28;20373;-56
2021/04/16 15:30:53;;;;;;;2.20;1.00;;;;;;;;;;5038746;28;20029;-57
2021/04/16 15:33:21;;;;;;;1.73;1.10;;;;;;;;;;5037807;28;20050;-55
2021/04/16 15:46:54;;;;;;;3.58;1.10;;;;;;;;;;5020510;28;20042;-59
2021/04/16 15:49:21;;;;;;;2.00;0.80;;;;;;;;;;5021723;28;20050;-56
2021/04/16 15:51:48;;;;;;;3.70;0.98;;;;;;;;;;5041656;28;20077;-56
2021/04/16 15:54:14;;;;;;;1.15;0.80;;;;;;;;;;5029795;28;20046;-57
2021/04/16 15:56:42;;;;;;;3.75;1.17;;;;;;;;;;5019330;28;20045;-59
2021/04/16 15:59:11;;;;;;;2.83;0.88;;;;;;;;;;5020177;28;20042;-54
2021/04/16 16:01:37;;;;;;;3.75;1.40;;;;;;;;;;5018196;28;20050;-56
2021/04/16 16:04:03;;;;;;;1.90;1.02;;;;;;;;;;5020862;28;20061;-58
2021/04/16 16:06:29;;;;;;;1.75;1.00;;;;;;;;;;5018570;28;20048;-55
2021/04/16 16:08:57;;;;;;;3.80;1.10;;;;;;;;;;5022062;28;20061;-51
2021/04/16 16:11:26;;;;;;;1.50;0.90;;;;;;;;;;5016582;28;20053;-57
2021/04/16 16:13:53;;;;;;;2.95;1.25;;;;;;;;;;5021765;28;20049;-54
2021/04/16 16:16:19;;;;;;;4.68;0.93;;;;;;;;;;5025433;28;20048;-56
2021/04/16 16:18:46;;;;;;;4.00;1.00;;;;;;;;;;5039971;28;20034;-58
2021/04/16 16:21:14;;;;;;;3.28;1.10;;;;;;;;;;5031152;28;20056;-58
2021/04/16 16:23:41;;;;;;;4.38;0.90;;;;;;;;;;5021162;28;20038;-56
2021/04/16 16:26:08;;;;;;;3.13;1.20;;;;;;;;;;5019342;28;20214;-57
2021/04/16 16:28:35;;;;;;;3.97;1.15;;;;;;;;;;5042192;28;20045;-58
2021/04/16 16:31:01;;;;;;;3.15;0.85;;;;;;;;;;5037251;28;20106;-58
2021/04/16 16:33:27;;;;;;;2.50;0.98;;;;;;;;;;5021439;28;20045;-58
2021/04/16 16:35:53;;;;;;;1.85;0.88;;;;;;;;;;5021365;28;20042;-59
2021/04/16 16:38:21;;;;;;;2.83;0.98;;;;;;;;;;5036825;28;20037;-59
2021/04/16 16:40:47;;;;;;;6.57;1.25;;;;;;;;;;5040285;28;20053;-59
2021/04/16 16:43:24;;;;;;;2.90;1.00;;;;;;;;;;5038578;28;20045;-60
2021/04/16 16:45:54;;;;;;;3.38;1.00;;;;;;;;;;5041344;28;20041;-55
2021/04/16 16:48:20;;;;;;;2.20;0.80;;;;;;;;;;5028071;28;20057;-57
2021/04/16 16:50:47;;;;;;;2.50;1.02;;;;;;;;;;5028649;28;20084;-55
2021/04/16 16:53:14;;;;;;;3.03;1.10;;;;;;;;;;5031774;28;20046;-59
2021/04/16 16:55:40;;;;;;;6.70;1.38;;;;;;;;;;5056385;28;20074;-59
2021/04/16 16:58:08;;;;;;;11.13;1.23;;;;;;;;;;5023337;28;20053;-60
2021/04/16 17:00:39;;;;;;;11.48;1.30;;;;;;;;;;5030823;28;20042;-59
2021/04/16 17:03:05;;;;;;;4.68;1.50;;;;;;;;;;5026087;28;20077;-59
2021/04/16 17:05:31;;;;;;;8.43;1.42;;;;;;;;;;5031038;28;20128;-61
2021/04/16 17:07:57;;;;;;;1.58;0.90;;;;;;;;;;5021922;28;20065;-60
2021/04/16 17:10:24;;;;;;;3.50;0.90;;;;;;;;;;5026850;28;20094;-57
2021/04/16 17:12:50;;;;;;;3.28;1.02;;;;;;;;;;5024132;28;20061;-54
2021/04/16 17:15:18;;;;;;;1.95;0.85;;;;;;;;;;5030225;28;20122;-55
2021/04/16 17:17:45;;;;;;;6.63;1.48;;;;;;;;;;5024510;28;20068;-58